sensor_id;sensor_type;location;lat;lon;timestamp;P1;durP1;ratioP1;P2;durP2;ratioP2
35961;SDS011;22044;48.298;10.008;2022-12-20T00:02:02;32.07;;;21.27;;
35961;SDS011;22044;48.298;10.008;2022-12-20T00:04:47;33.80;;;21.33;;
35961;SDS011;22044;48.298;10.008;2022-12-20T00:07:34;30.20;;;21.90;;
35961;SDS011;22044;48.298;10.008;2022-12-20T00:10:20;30.53;;;20.97;;
35961;SDS011;22044;48.298;10.008;2022-12-20T00:13:06;35.43;;;21.90;;
35961;SDS011;22044;48.298;10.008;2022-12-20T00:16:01;30.97;;;21.97;;
35961;SDS011;22044;48.298;10.008;2022-12-20T00:18:49;36.20;;;22.50;;
35961;SDS011;22044;48.298;10.008;2022-12-20T00:21:36;33.50;;;21.40;;
35961;SDS011;22044;48.298;10.008;2022-12-20T00:24:23;33.67;;;21.93;;
35961;SDS011;22044;48.298;10.008;2022-12-20T00:27:09;33.13;;;21.77;;
35961;SDS011;22044;48.298;10.008;2022-12-20T00:29:54;32.73;;;21.47;;
35961;SDS011;22044;48.298;10.008;2022-12-20T00:32:40;34.17;;;22.27;;
35961;SDS011;22044;48.298;10.008;2022-12-20T00:35:27;33.60;;;21.23;;
35961;SDS011;22044;48.298;10.008;2022-12-20T00:38:12;29.13;;;21.13;;
35961;SDS011;22044;48.298;10.008;2022-12-20T00:41:00;28.93;;;19.73;;
35961;SDS011;22044;48.298;10.008;2022-12-20T00:43:47;32.47;;;20.87;;
35961;SDS011;22044;48.298;10.008;2022-12-20T00:46:32;30.77;;;19.83;;
35961;SDS011;22044;48.298;10.008;2022-12-20T00:49:18;30.60;;;19.40;;
35961;SDS011;22044;48.298;10.008;2022-12-20T00:52:04;31.20;;;20.67;;
35961;SDS011;22044;48.298;10.008;2022-12-20T00:54:50;30.70;;;19.80;;
35961;SDS011;22044;48.298;10.008;2022-12-20T00:57:37;28.97;;;20.67;;
35961;SDS011;22044;48.298;10.008;2022-12-20T01:00:23;29.37;;;19.47;;
35961;SDS011;22044;48.298;10.008;2022-12-20T01:03:08;34.37;;;20.47;;
35961;SDS011;22044;48.298;10.008;2022-12-20T01:05:54;31.63;;;21.57;;
35961;SDS011;22044;48.298;10.008;2022-12-20T01:08:42;30.33;;;19.90;;
35961;SDS011;22044;48.298;10.008;2022-12-20T01:11:28;29.63;;;20.00;;
35961;SDS011;22044;48.298;10.008;2022-12-20T01:14:17;28.10;;;19.30;;
35961;SDS011;22044;48.298;10.008;2022-12-20T01:17:02;28.50;;;20.57;;
35961;SDS011;22044;48.298;10.008;2022-12-20T01:19:48;30.83;;;19.53;;
35961;SDS011;22044;48.298;10.008;2022-12-20T01:22:34;28.17;;;18.30;;
35961;SDS011;22044;48.298;10.008;2022-12-20T01:25:19;29.20;;;19.27;;
35961;SDS011;22044;48.298;10.008;2022-12-20T01:28:05;32.43;;;19.73;;
35961;SDS011;22044;48.298;10.008;2022-12-20T01:30:52;29.83;;;19.30;;
35961;SDS011;22044;48.298;10.008;2022-12-20T01:33:38;31.67;;;20.17;;
35961;SDS011;22044;48.298;10.008;2022-12-20T01:36:25;32.00;;;21.27;;
35961;SDS011;22044;48.298;10.008;2022-12-20T01:39:14;31.00;;;20.17;;
35961;SDS011;22044;48.298;10.008;2022-12-20T01:42:00;34.23;;;22.33;;
35961;SDS011;22044;48.298;10.008;2022-12-20T01:44:56;34.40;;;21.57;;
35961;SDS011;22044;48.298;10.008;2022-12-20T01:47:44;34.73;;;22.83;;
35961;SDS011;22044;48.298;10.008;2022-12-20T01:50:30;39.47;;;22.73;;
35961;SDS011;22044;48.298;10.008;2022-12-20T01:53:17;34.93;;;21.30;;
35961;SDS011;22044;48.298;10.008;2022-12-20T01:56:04;28.23;;;19.70;;
35961;SDS011;22044;48.298;10.008;2022-12-20T01:58:52;32.23;;;21.00;;
35961;SDS011;22044;48.298;10.008;2022-12-20T02:01:39;32.20;;;21.13;;
35961;SDS011;22044;48.298;10.008;2022-12-20T02:04:27;32.40;;;20.70;;
35961;SDS011;22044;48.298;10.008;2022-12-20T02:07:14;31.93;;;22.00;;
35961;SDS011;22044;48.298;10.008;2022-12-20T02:10:04;30.63;;;20.50;;
35961;SDS011;22044;48.298;10.008;2022-12-20T02:12:52;32.67;;;21.10;;
35961;SDS011;22044;48.298;10.008;2022-12-20T02:15:44;33.67;;;21.00;;
35961;SDS011;22044;48.298;10.008;2022-12-20T02:18:37;31.87;;;19.90;;
35961;SDS011;22044;48.298;10.008;2022-12-20T02:21:32;30.13;;;20.80;;
35961;SDS011;22044;48.298;10.008;2022-12-20T02:24:26;32.97;;;20.93;;
35961;SDS011;22044;48.298;10.008;2022-12-20T02:27:47;29.80;;;20.00;;
35961;SDS011;22044;48.298;10.008;2022-12-20T02:30:41;34.70;;;22.10;;
35961;SDS011;22044;48.298;10.008;2022-12-20T02:33:29;33.10;;;20.90;;
35961;SDS011;22044;48.298;10.008;2022-12-20T02:36:15;32.73;;;21.20;;
35961;SDS011;22044;48.298;10.008;2022-12-20T02:39:03;31.60;;;20.77;;
35961;SDS011;22044;48.298;10.008;2022-12-20T02:41:49;37.23;;;23.23;;
35961;SDS011;22044;48.298;10.008;2022-12-20T02:44:40;34.23;;;21.67;;
35961;SDS011;22044;48.298;10.008;2022-12-20T02:47:50;37.07;;;23.63;;
35961;SDS011;22044;48.298;10.008;2022-12-20T02:50:41;37.53;;;23.20;;
35961;SDS011;22044;48.298;10.008;2022-12-20T02:53:30;42.33;;;22.93;;
35961;SDS011;22044;48.298;10.008;2022-12-20T02:56:19;37.33;;;22.97;;
35961;SDS011;22044;48.298;10.008;2022-12-20T02:59:10;37.90;;;23.70;;
35961;SDS011;22044;48.298;10.008;2022-12-20T03:02:00;35.67;;;23.43;;
35961;SDS011;22044;48.298;10.008;2022-12-20T03:04:47;37.90;;;23.47;;
35961;SDS011;22044;48.298;10.008;2022-12-20T03:07:34;37.00;;;21.20;;
35961;SDS011;22044;48.298;10.008;2022-12-20T03:10:20;38.93;;;23.93;;
35961;SDS011;22044;48.298;10.008;2022-12-20T03:13:07;38.97;;;22.67;;
35961;SDS011;22044;48.298;10.008;2022-12-20T03:15:56;38.10;;;22.13;;
35961;SDS011;22044;48.298;10.008;2022-12-20T03:18:42;36.13;;;21.77;;
35961;SDS011;22044;48.298;10.008;2022-12-20T03:21:30;34.30;;;21.27;;
35961;SDS011;22044;48.298;10.008;2022-12-20T03:24:16;35.07;;;21.57;;
35961;SDS011;22044;48.298;10.008;2022-12-20T03:27:02;34.77;;;21.63;;
35961;SDS011;22044;48.298;10.008;2022-12-20T03:29:48;35.13;;;21.70;;
35961;SDS011;22044;48.298;10.008;2022-12-20T03:32:33;32.70;;;20.63;;
35961;SDS011;22044;48.298;10.008;2022-12-20T03:35:19;34.43;;;21.83;;
35961;SDS011;22044;48.298;10.008;2022-12-20T03:38:06;30.47;;;20.20;;
35961;SDS011;22044;48.298;10.008;2022-12-20T03:40:52;30.57;;;19.43;;
35961;SDS011;22044;48.298;10.008;2022-12-20T03:43:39;28.63;;;19.30;;
35961;SDS011;22044;48.298;10.008;2022-12-20T03:46:25;29.47;;;18.77;;
35961;SDS011;22044;48.298;10.008;2022-12-20T03:49:10;32.23;;;20.43;;
35961;SDS011;22044;48.298;10.008;2022-12-20T03:52:02;28.57;;;19.10;;
35961;SDS011;22044;48.298;10.008;2022-12-20T03:54:50;28.93;;;20.17;;
35961;SDS011;22044;48.298;10.008;2022-12-20T03:57:38;34.93;;;21.97;;
35961;SDS011;22044;48.298;10.008;2022-12-20T04:00:38;29.90;;;19.23;;
35961;SDS011;22044;48.298;10.008;2022-12-20T04:03:50;29.90;;;19.90;;
35961;SDS011;22044;48.298;10.008;2022-12-20T04:06:36;36.93;;;22.17;;
35961;SDS011;22044;48.298;10.008;2022-12-20T04:09:21;34.20;;;22.00;;
35961;SDS011;22044;48.298;10.008;2022-12-20T04:12:14;33.50;;;21.50;;
35961;SDS011;22044;48.298;10.008;2022-12-20T04:15:00;31.90;;;20.47;;
35961;SDS011;22044;48.298;10.008;2022-12-20T04:17:47;31.97;;;20.23;;
35961;SDS011;22044;48.298;10.008;2022-12-20T04:20:32;29.77;;;19.67;;
35961;SDS011;22044;48.298;10.008;2022-12-20T04:23:30;31.10;;;20.23;;
35961;SDS011;22044;48.298;10.008;2022-12-20T04:26:16;29.37;;;20.00;;
35961;SDS011;22044;48.298;10.008;2022-12-20T04:29:04;34.10;;;21.57;;
35961;SDS011;22044;48.298;10.008;2022-12-20T04:31:50;32.40;;;20.67;;
35961;SDS011;22044;48.298;10.008;2022-12-20T04:34:36;29.70;;;20.07;;
35961;SDS011;22044;48.298;10.008;2022-12-20T04:37:22;33.93;;;21.10;;
35961;SDS011;22044;48.298;10.008;2022-12-20T04:40:11;31.30;;;19.90;;
35961;SDS011;22044;48.298;10.008;2022-12-20T04:43:11;32.33;;;19.63;;
35961;SDS011;22044;48.298;10.008;2022-12-20T04:45:58;28.67;;;19.97;;
35961;SDS011;22044;48.298;10.008;2022-12-20T04:48:43;31.13;;;19.67;;
35961;SDS011;22044;48.298;10.008;2022-12-20T04:51:29;30.70;;;19.97;;
35961;SDS011;22044;48.298;10.008;2022-12-20T04:54:15;30.30;;;19.37;;
35961;SDS011;22044;48.298;10.008;2022-12-20T04:57:07;31.70;;;20.67;;
35961;SDS011;22044;48.298;10.008;2022-12-20T04:59:53;32.87;;;20.83;;
35961;SDS011;22044;48.298;10.008;2022-12-20T05:02:39;32.03;;;19.77;;
35961;SDS011;22044;48.298;10.008;2022-12-20T05:05:28;31.17;;;20.27;;
35961;SDS011;22044;48.298;10.008;2022-12-20T05:08:15;29.10;;;20.03;;
35961;SDS011;22044;48.298;10.008;2022-12-20T05:11:01;32.07;;;19.47;;
35961;SDS011;22044;48.298;10.008;2022-12-20T05:13:48;26.33;;;17.93;;
35961;SDS011;22044;48.298;10.008;2022-12-20T05:16:37;32.17;;;19.17;;
35961;SDS011;22044;48.298;10.008;2022-12-20T05:19:25;31.53;;;20.27;;
35961;SDS011;22044;48.298;10.008;2022-12-20T05:22:11;29.00;;;17.97;;
35961;SDS011;22044;48.298;10.008;2022-12-20T05:25:22;30.07;;;18.93;;
35961;SDS011;22044;48.298;10.008;2022-12-20T05:28:25;29.10;;;18.37;;
35961;SDS011;22044;48.298;10.008;2022-12-20T05:31:11;33.13;;;21.93;;
35961;SDS011;22044;48.298;10.008;2022-12-20T05:33:56;32.57;;;20.10;;
35961;SDS011;22044;48.298;10.008;2022-12-20T05:36:48;31.80;;;20.33;;
35961;SDS011;22044;48.298;10.008;2022-12-20T05:39:34;31.83;;;20.83;;
35961;SDS011;22044;48.298;10.008;2022-12-20T05:42:24;31.63;;;20.77;;
35961;SDS011;22044;48.298;10.008;2022-12-20T05:45:10;32.83;;;21.70;;
35961;SDS011;22044;48.298;10.008;2022-12-20T05:48:05;32.97;;;20.87;;
35961;SDS011;22044;48.298;10.008;2022-12-20T05:50:55;30.40;;;19.20;;
35961;SDS011;22044;48.298;10.008;2022-12-20T05:53:45;34.20;;;21.23;;
35961;SDS011;22044;48.298;10.008;2022-12-20T05:56:32;30.03;;;20.73;;
35961;SDS011;22044;48.298;10.008;2022-12-20T05:59:17;34.67;;;21.10;;
35961;SDS011;22044;48.298;10.008;2022-12-20T06:02:04;33.70;;;21.27;;
35961;SDS011;22044;48.298;10.008;2022-12-20T06:04:50;29.67;;;19.77;;
35961;SDS011;22044;48.298;10.008;2022-12-20T06:07:39;29.23;;;19.33;;
35961;SDS011;22044;48.298;10.008;2022-12-20T06:10:26;31.77;;;19.13;;
35961;SDS011;22044;48.298;10.008;2022-12-20T06:13:14;26.57;;;19.40;;
35961;SDS011;22044;48.298;10.008;2022-12-20T06:16:00;33.13;;;20.83;;
35961;SDS011;22044;48.298;10.008;2022-12-20T06:18:47;27.80;;;19.47;;
35961;SDS011;22044;48.298;10.008;2022-12-20T06:21:34;29.60;;;20.00;;
35961;SDS011;22044;48.298;10.008;2022-12-20T06:24:20;28.63;;;19.13;;
35961;SDS011;22044;48.298;10.008;2022-12-20T06:27:10;28.27;;;18.83;;
35961;SDS011;22044;48.298;10.008;2022-12-20T06:29:55;28.77;;;19.30;;
35961;SDS011;22044;48.298;10.008;2022-12-20T06:32:46;27.40;;;18.17;;
35961;SDS011;22044;48.298;10.008;2022-12-20T06:35:31;27.93;;;18.20;;
35961;SDS011;22044;48.298;10.008;2022-12-20T06:38:17;28.83;;;17.60;;
35961;SDS011;22044;48.298;10.008;2022-12-20T06:41:03;26.53;;;17.00;;
35961;SDS011;22044;48.298;10.008;2022-12-20T06:43:50;27.33;;;18.17;;
35961;SDS011;22044;48.298;10.008;2022-12-20T06:46:36;28.77;;;17.97;;
35961;SDS011;22044;48.298;10.008;2022-12-20T06:49:22;25.27;;;17.43;;
35961;SDS011;22044;48.298;10.008;2022-12-20T06:52:08;31.80;;;21.17;;
35961;SDS011;22044;48.298;10.008;2022-12-20T06:55:04;38.47;;;26.73;;
35961;SDS011;22044;48.298;10.008;2022-12-20T06:57:53;32.90;;;20.93;;
35961;SDS011;22044;48.298;10.008;2022-12-20T07:00:41;33.73;;;20.33;;
35961;SDS011;22044;48.298;10.008;2022-12-20T07:03:26;32.60;;;21.03;;
35961;SDS011;22044;48.298;10.008;2022-12-20T07:06:12;29.20;;;19.53;;
35961;SDS011;22044;48.298;10.008;2022-12-20T07:08:58;28.97;;;19.20;;
35961;SDS011;22044;48.298;10.008;2022-12-20T07:11:43;29.97;;;19.87;;
35961;SDS011;22044;48.298;10.008;2022-12-20T07:14:29;29.17;;;19.77;;
35961;SDS011;22044;48.298;10.008;2022-12-20T07:17:16;33.70;;;22.17;;
35961;SDS011;22044;48.298;10.008;2022-12-20T07:20:01;34.40;;;21.87;;
35961;SDS011;22044;48.298;10.008;2022-12-20T07:22:48;35.40;;;22.60;;
35961;SDS011;22044;48.298;10.008;2022-12-20T07:25:33;36.00;;;22.77;;
35961;SDS011;22044;48.298;10.008;2022-12-20T07:28:19;34.30;;;22.57;;
35961;SDS011;22044;48.298;10.008;2022-12-20T07:31:04;33.20;;;21.57;;
35961;SDS011;22044;48.298;10.008;2022-12-20T07:33:51;32.80;;;22.50;;
35961;SDS011;22044;48.298;10.008;2022-12-20T07:36:37;35.30;;;23.67;;
35961;SDS011;22044;48.298;10.008;2022-12-20T07:39:23;35.17;;;22.43;;
35961;SDS011;22044;48.298;10.008;2022-12-20T07:42:09;36.20;;;22.23;;
35961;SDS011;22044;48.298;10.008;2022-12-20T07:45:06;35.50;;;23.07;;
35961;SDS011;22044;48.298;10.008;2022-12-20T07:47:52;35.77;;;24.07;;
35961;SDS011;22044;48.298;10.008;2022-12-20T07:50:41;37.13;;;24.93;;
35961;SDS011;22044;48.298;10.008;2022-12-20T07:53:26;38.13;;;24.33;;
35961;SDS011;22044;48.298;10.008;2022-12-20T07:56:14;36.87;;;24.73;;
35961;SDS011;22044;48.298;10.008;2022-12-20T07:59:01;36.37;;;24.20;;
35961;SDS011;22044;48.298;10.008;2022-12-20T08:01:47;35.93;;;24.37;;
35961;SDS011;22044;48.298;10.008;2022-12-20T08:04:33;37.60;;;24.53;;
35961;SDS011;22044;48.298;10.008;2022-12-20T08:07:20;33.67;;;23.00;;
35961;SDS011;22044;48.298;10.008;2022-12-20T08:10:06;44.40;;;27.47;;
35961;SDS011;22044;48.298;10.008;2022-12-20T08:12:55;36.77;;;23.70;;
35961;SDS011;22044;48.298;10.008;2022-12-20T08:15:42;34.87;;;23.13;;
35961;SDS011;22044;48.298;10.008;2022-12-20T08:18:28;37.23;;;24.40;;
35961;SDS011;22044;48.298;10.008;2022-12-20T08:21:14;36.33;;;24.70;;
35961;SDS011;22044;48.298;10.008;2022-12-20T08:24:01;35.70;;;22.93;;
35961;SDS011;22044;48.298;10.008;2022-12-20T08:26:47;37.50;;;23.00;;
35961;SDS011;22044;48.298;10.008;2022-12-20T08:29:33;34.83;;;24.17;;
35961;SDS011;22044;48.298;10.008;2022-12-20T08:32:19;36.07;;;24.73;;
35961;SDS011;22044;48.298;10.008;2022-12-20T08:35:05;43.77;;;29.53;;
35961;SDS011;22044;48.298;10.008;2022-12-20T08:37:51;35.13;;;23.80;;
35961;SDS011;22044;48.298;10.008;2022-12-20T08:40:38;31.07;;;21.63;;
35961;SDS011;22044;48.298;10.008;2022-12-20T08:43:23;37.57;;;25.57;;
35961;SDS011;22044;48.298;10.008;2022-12-20T08:46:09;30.60;;;22.10;;
35961;SDS011;22044;48.298;10.008;2022-12-20T08:48:55;29.20;;;20.70;;
35961;SDS011;22044;48.298;10.008;2022-12-20T08:51:41;27.57;;;19.37;;
35961;SDS011;22044;48.298;10.008;2022-12-20T08:54:26;28.60;;;20.50;;
35961;SDS011;22044;48.298;10.008;2022-12-20T08:57:13;27.80;;;20.10;;
35961;SDS011;22044;48.298;10.008;2022-12-20T08:59:59;28.40;;;19.87;;
35961;SDS011;22044;48.298;10.008;2022-12-20T09:02:45;28.57;;;23.57;;
35961;SDS011;22044;48.298;10.008;2022-12-20T09:05:31;35.80;;;24.60;;
35961;SDS011;22044;48.298;10.008;2022-12-20T09:08:17;34.63;;;25.53;;
35961;SDS011;22044;48.298;10.008;2022-12-20T09:11:03;32.47;;;22.43;;
35961;SDS011;22044;48.298;10.008;2022-12-20T09:13:51;33.13;;;21.87;;
35961;SDS011;22044;48.298;10.008;2022-12-20T09:16:38;31.50;;;22.33;;
35961;SDS011;22044;48.298;10.008;2022-12-20T09:19:24;29.63;;;19.97;;
35961;SDS011;22044;48.298;10.008;2022-12-20T09:22:09;30.60;;;22.17;;
35961;SDS011;22044;48.298;10.008;2022-12-20T09:24:55;32.23;;;21.50;;
35961;SDS011;22044;48.298;10.008;2022-12-20T09:27:41;33.77;;;22.80;;
35961;SDS011;22044;48.298;10.008;2022-12-20T09:30:28;35.20;;;23.13;;
35961;SDS011;22044;48.298;10.008;2022-12-20T09:33:13;31.87;;;21.00;;
35961;SDS011;22044;48.298;10.008;2022-12-20T09:36:01;32.67;;;21.00;;
35961;SDS011;22044;48.298;10.008;2022-12-20T09:38:47;33.00;;;21.93;;
35961;SDS011;22044;48.298;10.008;2022-12-20T09:41:36;33.60;;;23.20;;
35961;SDS011;22044;48.298;10.008;2022-12-20T09:44:26;33.27;;;22.37;;
35961;SDS011;22044;48.298;10.008;2022-12-20T09:47:16;34.43;;;23.10;;
35961;SDS011;22044;48.298;10.008;2022-12-20T09:50:04;31.17;;;21.50;;
35961;SDS011;22044;48.298;10.008;2022-12-20T09:52:54;31.60;;;22.70;;
35961;SDS011;22044;48.298;10.008;2022-12-20T09:55:52;31.60;;;23.13;;
35961;SDS011;22044;48.298;10.008;2022-12-20T09:58:52;31.77;;;22.20;;
35961;SDS011;22044;48.298;10.008;2022-12-20T10:01:44;30.40;;;20.63;;
35961;SDS011;22044;48.298;10.008;2022-12-20T10:04:32;26.93;;;20.40;;
35961;SDS011;22044;48.298;10.008;2022-12-20T10:07:21;30.30;;;20.20;;
35961;SDS011;22044;48.298;10.008;2022-12-20T10:10:21;37.00;;;21.20;;
35961;SDS011;22044;48.298;10.008;2022-12-20T10:13:34;28.83;;;19.70;;
35961;SDS011;22044;48.298;10.008;2022-12-20T10:16:35;28.43;;;19.73;;
35961;SDS011;22044;48.298;10.008;2022-12-20T10:22:29;28.57;;;20.63;;
35961;SDS011;22044;48.298;10.008;2022-12-20T10:25:21;29.67;;;19.97;;
35961;SDS011;22044;48.298;10.008;2022-12-20T10:28:10;29.30;;;19.80;;
35961;SDS011;22044;48.298;10.008;2022-12-20T10:30:59;29.03;;;19.87;;
35961;SDS011;22044;48.298;10.008;2022-12-20T10:33:47;34.43;;;20.53;;
35961;SDS011;22044;48.298;10.008;2022-12-20T10:36:33;26.80;;;20.03;;
35961;SDS011;22044;48.298;10.008;2022-12-20T10:39:21;30.20;;;19.70;;
35961;SDS011;22044;48.298;10.008;2022-12-20T10:42:27;28.53;;;18.20;;
35961;SDS011;22044;48.298;10.008;2022-12-20T10:45:25;30.33;;;19.60;;
35961;SDS011;22044;48.298;10.008;2022-12-20T10:48:24;31.83;;;19.63;;
35961;SDS011;22044;48.298;10.008;2022-12-20T10:51:18;27.57;;;18.83;;
35961;SDS011;22044;48.298;10.008;2022-12-20T10:54:18;30.17;;;19.47;;
35961;SDS011;22044;48.298;10.008;2022-12-20T10:57:12;25.07;;;18.83;;
35961;SDS011;22044;48.298;10.008;2022-12-20T11:00:03;34.23;;;18.13;;
35961;SDS011;22044;48.298;10.008;2022-12-20T11:03:01;34.00;;;21.20;;
35961;SDS011;22044;48.298;10.008;2022-12-20T11:05:53;27.73;;;19.33;;
35961;SDS011;22044;48.298;10.008;2022-12-20T11:08:41;28.30;;;18.50;;
35961;SDS011;22044;48.298;10.008;2022-12-20T11:11:27;31.20;;;20.97;;
35961;SDS011;22044;48.298;10.008;2022-12-20T11:14:13;25.87;;;17.87;;
35961;SDS011;22044;48.298;10.008;2022-12-20T11:17:01;42.80;;;29.03;;
35961;SDS011;22044;48.298;10.008;2022-12-20T11:19:53;38.83;;;25.43;;
35961;SDS011;22044;48.298;10.008;2022-12-20T11:23:09;40.13;;;24.50;;
35961;SDS011;22044;48.298;10.008;2022-12-20T11:26:05;28.93;;;19.23;;
35961;SDS011;22044;48.298;10.008;2022-12-20T11:29:12;29.80;;;18.40;;
35961;SDS011;22044;48.298;10.008;2022-12-20T11:32:10;28.47;;;19.23;;
35961;SDS011;22044;48.298;10.008;2022-12-20T11:35:06;25.97;;;20.40;;
35961;SDS011;22044;48.298;10.008;2022-12-20T11:38:00;29.93;;;20.90;;
35961;SDS011;22044;48.298;10.008;2022-12-20T11:40:53;26.63;;;19.10;;
35961;SDS011;22044;48.298;10.008;2022-12-20T11:43:51;27.60;;;18.37;;
35961;SDS011;22044;48.298;10.008;2022-12-20T11:46:53;30.93;;;20.17;;
35961;SDS011;22044;48.298;10.008;2022-12-20T11:49:49;26.53;;;19.90;;
35961;SDS011;22044;48.298;10.008;2022-12-20T11:52:47;25.73;;;19.27;;
35961;SDS011;22044;48.298;10.008;2022-12-20T11:55:36;27.90;;;18.93;;
35961;SDS011;22044;48.298;10.008;2022-12-20T11:58:28;25.87;;;18.17;;
35961;SDS011;22044;48.298;10.008;2022-12-20T12:01:18;24.97;;;19.70;;
35961;SDS011;22044;48.298;10.008;2022-12-20T12:04:12;25.70;;;19.53;;
35961;SDS011;22044;48.298;10.008;2022-12-20T12:07:01;27.67;;;19.60;;
35961;SDS011;22044;48.298;10.008;2022-12-20T12:09:54;25.40;;;18.77;;
35961;SDS011;22044;48.298;10.008;2022-12-20T12:12:44;29.83;;;22.10;;
35961;SDS011;22044;48.298;10.008;2022-12-20T12:15:32;31.53;;;21.17;;
35961;SDS011;22044;48.298;10.008;2022-12-20T12:18:23;29.70;;;20.67;;
35961;SDS011;22044;48.298;10.008;2022-12-20T12:21:12;38.30;;;24.03;;
35961;SDS011;22044;48.298;10.008;2022-12-20T12:24:04;31.90;;;21.80;;
35961;SDS011;22044;48.298;10.008;2022-12-20T12:26:54;29.80;;;19.07;;
35961;SDS011;22044;48.298;10.008;2022-12-20T12:29:42;29.40;;;20.07;;
35961;SDS011;22044;48.298;10.008;2022-12-20T12:32:28;49.80;;;29.30;;
35961;SDS011;22044;48.298;10.008;2022-12-20T12:35:37;98.50;;;56.80;;
35961;SDS011;22044;48.298;10.008;2022-12-20T12:45:39;78.83;;;44.57;;
35961;SDS011;22044;48.298;10.008;2022-12-20T12:48:29;54.90;;;37.83;;
35961;SDS011;22044;48.298;10.008;2022-12-20T12:51:21;37.63;;;25.43;;
35961;SDS011;22044;48.298;10.008;2022-12-20T12:54:15;28.47;;;19.83;;
35961;SDS011;22044;48.298;10.008;2022-12-20T12:57:05;27.80;;;18.23;;
35961;SDS011;22044;48.298;10.008;2022-12-20T12:59:55;28.77;;;18.90;;
35961;SDS011;22044;48.298;10.008;2022-12-20T13:02:49;27.97;;;18.20;;
35961;SDS011;22044;48.298;10.008;2022-12-20T13:05:35;25.37;;;18.57;;
35961;SDS011;22044;48.298;10.008;2022-12-20T13:08:21;26.80;;;20.17;;
35961;SDS011;22044;48.298;10.008;2022-12-20T13:11:32;50.23;;;30.73;;
35961;SDS011;22044;48.298;10.008;2022-12-20T13:17:48;55.83;;;30.20;;
35961;SDS011;22044;48.298;10.008;2022-12-20T13:20:35;36.30;;;23.07;;
35961;SDS011;22044;48.298;10.008;2022-12-20T13:23:22;33.97;;;22.27;;
35961;SDS011;22044;48.298;10.008;2022-12-20T13:29:33;32.60;;;21.33;;
35961;SDS011;22044;48.298;10.008;2022-12-20T13:38:53;49.13;;;26.70;;
35961;SDS011;22044;48.298;10.008;2022-12-20T13:41:40;52.13;;;26.13;;
35961;SDS011;22044;48.298;10.008;2022-12-20T13:44:39;36.77;;;22.70;;
35961;SDS011;22044;48.298;10.008;2022-12-20T13:47:31;34.73;;;23.47;;
35961;SDS011;22044;48.298;10.008;2022-12-20T13:50:26;37.97;;;25.17;;
35961;SDS011;22044;48.298;10.008;2022-12-20T13:53:20;57.90;;;30.37;;
35961;SDS011;22044;48.298;10.008;2022-12-20T13:56:19;33.53;;;22.63;;
35961;SDS011;22044;48.298;10.008;2022-12-20T13:59:18;28.10;;;18.97;;
35961;SDS011;22044;48.298;10.008;2022-12-20T14:02:09;32.53;;;21.27;;
35961;SDS011;22044;48.298;10.008;2022-12-20T14:05:03;28.50;;;20.57;;
35961;SDS011;22044;48.298;10.008;2022-12-20T14:07:55;31.07;;;20.23;;
35961;SDS011;22044;48.298;10.008;2022-12-20T14:10:45;23.40;;;19.03;;
35961;SDS011;22044;48.298;10.008;2022-12-20T14:13:31;25.13;;;19.23;;
35961;SDS011;22044;48.298;10.008;2022-12-20T14:16:17;24.90;;;19.03;;
35961;SDS011;22044;48.298;10.008;2022-12-20T14:19:03;34.47;;;22.80;;
35961;SDS011;22044;48.298;10.008;2022-12-20T14:21:50;60.00;;;36.77;;
35961;SDS011;22044;48.298;10.008;2022-12-20T14:24:36;55.10;;;34.50;;
35961;SDS011;22044;48.298;10.008;2022-12-20T14:27:25;89.97;;;41.70;;
35961;SDS011;22044;48.298;10.008;2022-12-20T14:33:33;148.80;;;59.27;;
35961;SDS011;22044;48.298;10.008;2022-12-20T14:36:21;43.07;;;27.07;;
35961;SDS011;22044;48.298;10.008;2022-12-20T14:42:11;26.63;;;16.83;;
35961;SDS011;22044;48.298;10.008;2022-12-20T14:45:03;36.97;;;24.23;;
35961;SDS011;22044;48.298;10.008;2022-12-20T14:47:53;20.40;;;15.77;;
35961;SDS011;22044;48.298;10.008;2022-12-20T14:50:50;23.93;;;17.10;;
35961;SDS011;22044;48.298;10.008;2022-12-20T14:53:36;28.43;;;19.67;;
35961;SDS011;22044;48.298;10.008;2022-12-20T14:56:23;32.20;;;22.03;;
35961;SDS011;22044;48.298;10.008;2022-12-20T14:59:12;25.03;;;18.90;;
35961;SDS011;22044;48.298;10.008;2022-12-20T15:02:04;25.50;;;16.80;;
35961;SDS011;22044;48.298;10.008;2022-12-20T15:08:36;19.50;;;15.40;;
35961;SDS011;22044;48.298;10.008;2022-12-20T15:11:23;23.13;;;16.73;;
35961;SDS011;22044;48.298;10.008;2022-12-20T15:14:11;22.87;;;16.23;;
35961;SDS011;22044;48.298;10.008;2022-12-20T15:17:10;23.97;;;16.87;;
35961;SDS011;22044;48.298;10.008;2022-12-20T15:19:57;23.00;;;16.60;;
35961;SDS011;22044;48.298;10.008;2022-12-20T15:22:43;21.30;;;17.43;;
35961;SDS011;22044;48.298;10.008;2022-12-20T15:25:29;21.80;;;17.83;;
35961;SDS011;22044;48.298;10.008;2022-12-20T15:28:18;34.45;;;21.98;;
35961;SDS011;22044;48.298;10.008;2022-12-20T15:31:05;48.03;;;27.97;;
35961;SDS011;22044;48.298;10.008;2022-12-20T15:33:55;38.77;;;25.50;;
35961;SDS011;22044;48.298;10.008;2022-12-20T15:36:41;31.37;;;22.03;;
35961;SDS011;22044;48.298;10.008;2022-12-20T15:39:26;32.10;;;21.70;;
35961;SDS011;22044;48.298;10.008;2022-12-20T15:42:13;35.30;;;21.20;;
35961;SDS011;22044;48.298;10.008;2022-12-20T15:45:02;34.90;;;21.93;;
35961;SDS011;22044;48.298;10.008;2022-12-20T15:47:48;47.90;;;26.63;;
35961;SDS011;22044;48.298;10.008;2022-12-20T15:50:35;66.60;;;31.90;;
35961;SDS011;22044;48.298;10.008;2022-12-20T15:53:22;44.50;;;24.57;;
35961;SDS011;22044;48.298;10.008;2022-12-20T15:56:13;27.10;;;17.87;;
35961;SDS011;22044;48.298;10.008;2022-12-20T15:59:02;22.90;;;16.80;;
35961;SDS011;22044;48.298;10.008;2022-12-20T16:01:47;22.30;;;17.30;;
35961;SDS011;22044;48.298;10.008;2022-12-20T16:04:33;23.17;;;17.83;;
35961;SDS011;22044;48.298;10.008;2022-12-20T16:07:20;22.10;;;16.73;;
35961;SDS011;22044;48.298;10.008;2022-12-20T16:10:07;29.10;;;19.77;;
35961;SDS011;22044;48.298;10.008;2022-12-20T16:12:56;33.47;;;20.87;;
35961;SDS011;22044;48.298;10.008;2022-12-20T16:15:42;32.90;;;20.87;;
35961;SDS011;22044;48.298;10.008;2022-12-20T16:18:27;34.07;;;22.63;;
35961;SDS011;22044;48.298;10.008;2022-12-20T16:21:14;26.20;;;18.40;;
35961;SDS011;22044;48.298;10.008;2022-12-20T16:24:03;33.23;;;20.70;;
35961;SDS011;22044;48.298;10.008;2022-12-20T16:26:48;18.77;;;13.73;;
35961;SDS011;22044;48.298;10.008;2022-12-20T16:29:34;18.73;;;15.27;;
35961;SDS011;22044;48.298;10.008;2022-12-20T16:32:20;19.83;;;14.17;;
35961;SDS011;22044;48.298;10.008;2022-12-20T16:35:07;21.50;;;14.50;;
35961;SDS011;22044;48.298;10.008;2022-12-20T16:38:11;18.53;;;13.83;;
35961;SDS011;22044;48.298;10.008;2022-12-20T16:40:59;16.80;;;13.27;;
35961;SDS011;22044;48.298;10.008;2022-12-20T16:43:56;18.43;;;14.73;;
35961;SDS011;22044;48.298;10.008;2022-12-20T16:46:43;18.07;;;14.70;;
35961;SDS011;22044;48.298;10.008;2022-12-20T16:49:29;15.93;;;12.77;;